Terminal Aerodrome Forecast
Issued by NWS

Home | Current Version | Previous Version | Text Only | Print | Product List | Glossary On
Versions: 1 2 3 4 5 6 7 8 9 10 11 12 13 14 15 16 17 18 19 20 21 22 23 24 25 26 27 28 29 30 31 32 33 34 35 36
000
FTUS41 KBTV 080523
TAFMSS
TAF
KMSS 080523Z 0806/0906 00000KT P6SM SKC
     FM081400 19010G20KT P6SM BKN100 WS020/22040KT
     FM082200 21014G26KT P6SM OVC090 WS020/22045KT
     FM090200 21014G24KT P6SM VCSH OVC035 WS020/22050KT
     FM090400 21013G23KT P6SM VCSH OVC027 WS020/23050KT=

USA.gov is the U.S. government's official web portal to all federal, state and local government web resources and services.